sensor_id;sensor_type;location;lat;lon;timestamp;temperature;humidity
13174;DHT22;6652;48.802;9.190;2024-03-02T00:00:50;6.80;99.90
13174;DHT22;6652;48.802;9.190;2024-03-02T00:03:17;6.40;99.90
13174;DHT22;6652;48.802;9.190;2024-03-02T00:05:49;6.80;99.90
13174;DHT22;6652;48.802;9.190;2024-03-02T00:08:23;6.80;99.90
13174;DHT22;6652;48.802;9.190;2024-03-02T00:10:52;6.80;99.90
13174;DHT22;6652;48.802;9.190;2024-03-02T00:13:23;6.90;99.90
13174;DHT22;6652;48.802;9.190;2024-03-02T00:15:53;6.90;99.90
13174;DHT22;6652;48.802;9.190;2024-03-02T00:18:30;6.90;99.90
13174;DHT22;6652;48.802;9.190;2024-03-02T00:20:57;7.00;99.90
13174;DHT22;6652;48.802;9.190;2024-03-02T00:23:27;6.90;99.90
13174;DHT22;6652;48.802;9.190;2024-03-02T00:25:58;6.80;99.90
13174;DHT22;6652;48.802;9.190;2024-03-02T00:28:26;6.80;99.90
13174;DHT22;6652;48.802;9.190;2024-03-02T00:30:58;7.60;99.90
13174;DHT22;6652;48.802;9.190;2024-03-02T00:33:27;6.80;99.90
13174;DHT22;6652;48.802;9.190;2024-03-02T00:35:54;6.70;99.90
13174;DHT22;6652;48.802;9.190;2024-03-02T00:38:22;6.70;99.90
13174;DHT22;6652;48.802;9.190;2024-03-02T00:40:49;6.70;99.90
13174;DHT22;6652;48.802;9.190;2024-03-02T00:43:42;6.70;99.90
13174;DHT22;6652;48.802;9.190;2024-03-02T00:46:15;6.60;99.90
13174;DHT22;6652;48.802;9.190;2024-03-02T00:48:48;6.60;99.90
13174;DHT22;6652;48.802;9.190;2024-03-02T00:51:17;6.60;99.90
13174;DHT22;6652;48.802;9.190;2024-03-02T00:53:44;6.50;99.90
13174;DHT22;6652;48.802;9.190;2024-03-02T00:56:11;6.50;99.90
13174;DHT22;6652;48.802;9.190;2024-03-02T00:58:40;6.50;99.90
13174;DHT22;6652;48.802;9.190;2024-03-02T01:01:07;6.50;99.90
13174;DHT22;6652;48.802;9.190;2024-03-02T01:03:33;6.50;99.90
13174;DHT22;6652;48.802;9.190;2024-03-02T01:06:00;6.50;99.90
13174;DHT22;6652;48.802;9.190;2024-03-02T01:08:27;7.10;99.90
13174;DHT22;6652;48.802;9.190;2024-03-02T01:10:54;6.80;99.90
13174;DHT22;6652;48.802;9.190;2024-03-02T01:13:22;6.50;99.90
13174;DHT22;6652;48.802;9.190;2024-03-02T01:15:51;6.50;99.90
13174;DHT22;6652;48.802;9.190;2024-03-02T01:18:18;6.50;99.90
13174;DHT22;6652;48.802;9.190;2024-03-02T01:20:46;6.50;99.90
13174;DHT22;6652;48.802;9.190;2024-03-02T01:23:13;6.50;99.90
13174;DHT22;6652;48.802;9.190;2024-03-02T01:25:39;6.50;99.90
13174;DHT22;6652;48.802;9.190;2024-03-02T01:28:06;6.40;99.90
13174;DHT22;6652;48.802;9.190;2024-03-02T01:30:34;6.40;99.90
13174;DHT22;6652;48.802;9.190;2024-03-02T01:33:02;6.30;99.90
13174;DHT22;6652;48.802;9.190;2024-03-02T01:35:31;6.30;99.90
13174;DHT22;6652;48.802;9.190;2024-03-02T01:37:58;6.30;99.90
13174;DHT22;6652;48.802;9.190;2024-03-02T01:40:24;6.30;99.90
13174;DHT22;6652;48.802;9.190;2024-03-02T01:42:52;6.30;99.90
13174;DHT22;6652;48.802;9.190;2024-03-02T01:45:19;6.30;99.90
13174;DHT22;6652;48.802;9.190;2024-03-02T01:47:46;6.20;99.90
13174;DHT22;6652;48.802;9.190;2024-03-02T01:50:16;6.10;99.90
13174;DHT22;6652;48.802;9.190;2024-03-02T01:52:50;6.10;99.90
13174;DHT22;6652;48.802;9.190;2024-03-02T01:55:17;6.10;99.90
13174;DHT22;6652;48.802;9.190;2024-03-02T01:57:44;6.10;99.90
13174;DHT22;6652;48.802;9.190;2024-03-02T02:00:13;6.00;99.90
13174;DHT22;6652;48.802;9.190;2024-03-02T02:02:40;6.00;99.90
13174;DHT22;6652;48.802;9.190;2024-03-02T02:05:07;5.90;99.90
13174;DHT22;6652;48.802;9.190;2024-03-02T02:07:36;5.90;99.90
13174;DHT22;6652;48.802;9.190;2024-03-02T02:10:04;5.90;99.90
13174;DHT22;6652;48.802;9.190;2024-03-02T02:12:32;5.90;99.90
13174;DHT22;6652;48.802;9.190;2024-03-02T02:14:59;5.90;99.90
13174;DHT22;6652;48.802;9.190;2024-03-02T02:17:25;5.90;99.90
13174;DHT22;6652;48.802;9.190;2024-03-02T02:19:52;6.40;99.90
13174;DHT22;6652;48.802;9.190;2024-03-02T02:22:20;5.80;99.90
13174;DHT22;6652;48.802;9.190;2024-03-02T02:24:47;5.70;99.90
13174;DHT22;6652;48.802;9.190;2024-03-02T02:27:14;6.40;99.90
13174;DHT22;6652;48.802;9.190;2024-03-02T02:29:41;5.70;99.90
13174;DHT22;6652;48.802;9.190;2024-03-02T02:32:08;5.70;99.90
13174;DHT22;6652;48.802;9.190;2024-03-02T02:34:35;5.60;99.90
13174;DHT22;6652;48.802;9.190;2024-03-02T02:37:02;5.70;99.90
13174;DHT22;6652;48.802;9.190;2024-03-02T02:39:31;5.60;99.90
13174;DHT22;6652;48.802;9.190;2024-03-02T02:41:58;5.50;99.90
13174;DHT22;6652;48.802;9.190;2024-03-02T02:44:26;5.50;99.90
13174;DHT22;6652;48.802;9.190;2024-03-02T02:46:53;5.60;99.90
13174;DHT22;6652;48.802;9.190;2024-03-02T02:49:20;6.60;99.90
13174;DHT22;6652;48.802;9.190;2024-03-02T02:51:47;5.40;99.90
13174;DHT22;6652;48.802;9.190;2024-03-02T02:54:13;5.40;99.90
13174;DHT22;6652;48.802;9.190;2024-03-02T02:56:42;5.40;99.90
13174;DHT22;6652;48.802;9.190;2024-03-02T02:59:08;5.30;99.90
13174;DHT22;6652;48.802;9.190;2024-03-02T03:01:35;5.30;99.90
13174;DHT22;6652;48.802;9.190;2024-03-02T03:04:02;5.30;99.90
13174;DHT22;6652;48.802;9.190;2024-03-02T03:06:29;5.30;99.90
13174;DHT22;6652;48.802;9.190;2024-03-02T03:08:56;5.20;99.90
13174;DHT22;6652;48.802;9.190;2024-03-02T03:11:23;5.50;99.90
13174;DHT22;6652;48.802;9.190;2024-03-02T03:13:53;5.20;99.90
13174;DHT22;6652;48.802;9.190;2024-03-02T03:16:20;5.20;99.90
13174;DHT22;6652;48.802;9.190;2024-03-02T03:18:47;5.10;99.90
13174;DHT22;6652;48.802;9.190;2024-03-02T03:21:16;5.10;99.90
13174;DHT22;6652;48.802;9.190;2024-03-02T03:23:43;5.10;99.90
13174;DHT22;6652;48.802;9.190;2024-03-02T03:26:10;5.10;99.90
13174;DHT22;6652;48.802;9.190;2024-03-02T03:28:37;5.00;99.90
13174;DHT22;6652;48.802;9.190;2024-03-02T03:31:06;5.00;99.90
13174;DHT22;6652;48.802;9.190;2024-03-02T03:33:33;5.00;99.90
13174;DHT22;6652;48.802;9.190;2024-03-02T03:36:00;5.00;99.90
13174;DHT22;6652;48.802;9.190;2024-03-02T03:38:28;5.00;99.90
13174;DHT22;6652;48.802;9.190;2024-03-02T03:40:55;4.90;99.90
13174;DHT22;6652;48.802;9.190;2024-03-02T03:43:22;5.70;99.90
13174;DHT22;6652;48.802;9.190;2024-03-02T03:45:49;4.90;99.90
13174;DHT22;6652;48.802;9.190;2024-03-02T03:48:17;4.80;99.90
13174;DHT22;6652;48.802;9.190;2024-03-02T03:50:44;4.80;99.90
13174;DHT22;6652;48.802;9.190;2024-03-02T03:53:11;4.80;99.90
13174;DHT22;6652;48.802;9.190;2024-03-02T03:55:37;4.90;99.90
13174;DHT22;6652;48.802;9.190;2024-03-02T03:58:04;4.70;99.90
13174;DHT22;6652;48.802;9.190;2024-03-02T04:00:31;4.70;99.90
13174;DHT22;6652;48.802;9.190;2024-03-02T04:02:58;5.20;99.90
13174;DHT22;6652;48.802;9.190;2024-03-02T04:05:27;4.70;99.90
13174;DHT22;6652;48.802;9.190;2024-03-02T04:07:53;4.60;99.90
13174;DHT22;6652;48.802;9.190;2024-03-02T04:10:20;4.60;99.90
13174;DHT22;6652;48.802;9.190;2024-03-02T04:12:49;4.60;99.90
13174;DHT22;6652;48.802;9.190;2024-03-02T04:15:16;4.60;99.90
13174;DHT22;6652;48.802;9.190;2024-03-02T04:17:44;4.70;99.90
13174;DHT22;6652;48.802;9.190;2024-03-02T04:20:11;4.60;99.90
13174;DHT22;6652;48.802;9.190;2024-03-02T04:22:39;4.50;99.90
13174;DHT22;6652;48.802;9.190;2024-03-02T04:25:07;4.50;99.90
13174;DHT22;6652;48.802;9.190;2024-03-02T04:27:35;4.50;99.90
13174;DHT22;6652;48.802;9.190;2024-03-02T04:30:02;4.40;99.90
13174;DHT22;6652;48.802;9.190;2024-03-02T04:32:30;4.40;99.90
13174;DHT22;6652;48.802;9.190;2024-03-02T04:34:57;4.40;99.90
13174;DHT22;6652;48.802;9.190;2024-03-02T04:37:24;4.40;99.90
13174;DHT22;6652;48.802;9.190;2024-03-02T04:39:52;4.40;99.90
13174;DHT22;6652;48.802;9.190;2024-03-02T04:42:19;4.40;99.90
13174;DHT22;6652;48.802;9.190;2024-03-02T04:44:46;4.50;99.90
13174;DHT22;6652;48.802;9.190;2024-03-02T04:47:13;4.30;99.90
13174;DHT22;6652;48.802;9.190;2024-03-02T04:49:40;4.50;99.90
13174;DHT22;6652;48.802;9.190;2024-03-02T04:52:07;4.30;99.90
13174;DHT22;6652;48.802;9.190;2024-03-02T04:54:33;4.40;99.90
13174;DHT22;6652;48.802;9.190;2024-03-02T04:57:22;4.30;99.90
13174;DHT22;6652;48.802;9.190;2024-03-02T04:59:49;4.30;99.90
13174;DHT22;6652;48.802;9.190;2024-03-02T05:02:16;4.80;99.90
13174;DHT22;6652;48.802;9.190;2024-03-02T05:04:43;4.20;99.90
13174;DHT22;6652;48.802;9.190;2024-03-02T05:07:10;4.20;99.90
13174;DHT22;6652;48.802;9.190;2024-03-02T05:09:37;5.10;99.90
13174;DHT22;6652;48.802;9.190;2024-03-02T05:12:05;4.30;99.90
13174;DHT22;6652;48.802;9.190;2024-03-02T05:14:50;4.20;99.90
13174;DHT22;6652;48.802;9.190;2024-03-02T05:17:17;4.20;99.90
13174;DHT22;6652;48.802;9.190;2024-03-02T05:19:44;4.10;99.90
13174;DHT22;6652;48.802;9.190;2024-03-02T05:22:13;4.10;99.90
13174;DHT22;6652;48.802;9.190;2024-03-02T05:24:40;4.40;99.90
13174;DHT22;6652;48.802;9.190;2024-03-02T05:27:07;4.10;99.90
13174;DHT22;6652;48.802;9.190;2024-03-02T05:29:34;4.00;99.90
13174;DHT22;6652;48.802;9.190;2024-03-02T05:32:03;4.00;99.90
13174;DHT22;6652;48.802;9.190;2024-03-02T05:34:30;4.00;99.90
13174;DHT22;6652;48.802;9.190;2024-03-02T05:37:00;4.00;99.90
13174;DHT22;6652;48.802;9.190;2024-03-02T05:39:28;4.00;99.90
13174;DHT22;6652;48.802;9.190;2024-03-02T05:41:55;4.00;99.90
13174;DHT22;6652;48.802;9.190;2024-03-02T05:44:22;4.00;99.90
13174;DHT22;6652;48.802;9.190;2024-03-02T05:46:49;4.00;99.90
13174;DHT22;6652;48.802;9.190;2024-03-02T05:49:17;4.00;99.90
13174;DHT22;6652;48.802;9.190;2024-03-02T05:51:44;4.00;99.90
13174;DHT22;6652;48.802;9.190;2024-03-02T05:54:14;4.00;99.90
13174;DHT22;6652;48.802;9.190;2024-03-02T05:56:40;4.00;99.90
13174;DHT22;6652;48.802;9.190;2024-03-02T05:59:07;4.00;99.90
13174;DHT22;6652;48.802;9.190;2024-03-02T06:01:38;3.90;99.90
13174;DHT22;6652;48.802;9.190;2024-03-02T06:04:05;3.90;99.90
13174;DHT22;6652;48.802;9.190;2024-03-02T06:06:33;5.40;99.90
13174;DHT22;6652;48.802;9.190;2024-03-02T06:09:00;4.00;99.90
13174;DHT22;6652;48.802;9.190;2024-03-02T06:11:28;4.00;99.90
13174;DHT22;6652;48.802;9.190;2024-03-02T06:13:55;4.00;99.90
13174;DHT22;6652;48.802;9.190;2024-03-02T06:16:22;4.00;99.90
13174;DHT22;6652;48.802;9.190;2024-03-02T06:18:48;3.90;99.90
13174;DHT22;6652;48.802;9.190;2024-03-02T06:21:15;3.90;99.90
13174;DHT22;6652;48.802;9.190;2024-03-02T06:23:45;4.00;99.90
13174;DHT22;6652;48.802;9.190;2024-03-02T06:26:12;4.00;99.90
13174;DHT22;6652;48.802;9.190;2024-03-02T06:28:39;4.10;99.90
13174;DHT22;6652;48.802;9.190;2024-03-02T06:31:06;5.10;99.90
13174;DHT22;6652;48.802;9.190;2024-03-02T06:33:34;4.20;99.90
13174;DHT22;6652;48.802;9.190;2024-03-02T06:36:01;4.20;99.90
13174;DHT22;6652;48.802;9.190;2024-03-02T06:38:28;4.30;99.90
13174;DHT22;6652;48.802;9.190;2024-03-02T06:41:00;4.40;99.90
13174;DHT22;6652;48.802;9.190;2024-03-02T06:43:29;4.60;99.90
13174;DHT22;6652;48.802;9.190;2024-03-02T06:45:57;4.60;99.90
13174;DHT22;6652;48.802;9.190;2024-03-02T06:48:24;6.10;99.90
13174;DHT22;6652;48.802;9.190;2024-03-02T06:50:51;4.90;99.90
13174;DHT22;6652;48.802;9.190;2024-03-02T06:53:18;5.30;99.90
13174;DHT22;6652;48.802;9.190;2024-03-02T06:55:46;5.40;99.90
13174;DHT22;6652;48.802;9.190;2024-03-02T06:58:15;5.20;99.90
13174;DHT22;6652;48.802;9.190;2024-03-02T07:00:42;5.30;99.90
13174;DHT22;6652;48.802;9.190;2024-03-02T07:03:10;5.40;99.90
13174;DHT22;6652;48.802;9.190;2024-03-02T07:05:37;6.10;99.90
13174;DHT22;6652;48.802;9.190;2024-03-02T07:08:07;5.70;99.90
13174;DHT22;6652;48.802;9.190;2024-03-02T07:10:36;7.10;99.90
13174;DHT22;6652;48.802;9.190;2024-03-02T07:13:03;5.90;99.90
13174;DHT22;6652;48.802;9.190;2024-03-02T07:15:32;7.60;99.90
13174;DHT22;6652;48.802;9.190;2024-03-02T07:18:31;7.90;99.90
13174;DHT22;6652;48.802;9.190;2024-03-02T07:20:59;7.70;99.90
13174;DHT22;6652;48.802;9.190;2024-03-02T07:23:26;8.90;99.90
13174;DHT22;6652;48.802;9.190;2024-03-02T07:25:53;9.90;99.90
13174;DHT22;6652;48.802;9.190;2024-03-02T07:28:22;10.50;99.90
13174;DHT22;6652;48.802;9.190;2024-03-02T07:30:59;11.10;99.90
13174;DHT22;6652;48.802;9.190;2024-03-02T07:33:26;11.30;99.90
13174;DHT22;6652;48.802;9.190;2024-03-02T07:35:54;12.30;99.90
13174;DHT22;6652;48.802;9.190;2024-03-02T07:38:22;12.90;99.90
13174;DHT22;6652;48.802;9.190;2024-03-02T07:40:50;13.40;99.90
13174;DHT22;6652;48.802;9.190;2024-03-02T07:43:17;14.00;99.90
13174;DHT22;6652;48.802;9.190;2024-03-02T07:45:45;13.40;99.90
13174;DHT22;6652;48.802;9.190;2024-03-02T07:48:15;12.50;99.90
13174;DHT22;6652;48.802;9.190;2024-03-02T07:50:42;11.60;99.90
13174;DHT22;6652;48.802;9.190;2024-03-02T07:53:13;11.00;99.90
13174;DHT22;6652;48.802;9.190;2024-03-02T07:55:42;10.40;99.90
13174;DHT22;6652;48.802;9.190;2024-03-02T07:58:09;10.50;99.90
13174;DHT22;6652;48.802;9.190;2024-03-02T08:00:39;9.80;99.90
13174;DHT22;6652;48.802;9.190;2024-03-02T08:03:07;9.60;99.90
13174;DHT22;6652;48.802;9.190;2024-03-02T08:05:39;9.90;99.90
13174;DHT22;6652;48.802;9.190;2024-03-02T08:08:07;9.50;99.90
13174;DHT22;6652;48.802;9.190;2024-03-02T08:10:34;9.20;99.90
13174;DHT22;6652;48.802;9.190;2024-03-02T08:13:02;9.20;99.90
13174;DHT22;6652;48.802;9.190;2024-03-02T08:15:31;9.10;99.90
13174;DHT22;6652;48.802;9.190;2024-03-02T08:18:00;9.40;99.90
13174;DHT22;6652;48.802;9.190;2024-03-02T08:20:28;9.50;99.90
13174;DHT22;6652;48.802;9.190;2024-03-02T08:22:59;9.60;99.90
13174;DHT22;6652;48.802;9.190;2024-03-02T08:25:26;9.80;99.90
13174;DHT22;6652;48.802;9.190;2024-03-02T08:27:53;11.00;99.90
13174;DHT22;6652;48.802;9.190;2024-03-02T08:30:22;10.90;99.90
13174;DHT22;6652;48.802;9.190;2024-03-02T08:32:49;11.70;99.90
13174;DHT22;6652;48.802;9.190;2024-03-02T08:35:19;13.10;99.90
13174;DHT22;6652;48.802;9.190;2024-03-02T08:37:48;14.00;99.90
13174;DHT22;6652;48.802;9.190;2024-03-02T08:40:20;14.60;99.90
13174;DHT22;6652;48.802;9.190;2024-03-02T08:42:47;14.90;99.90
13174;DHT22;6652;48.802;9.190;2024-03-02T08:45:14;15.70;99.90
13174;DHT22;6652;48.802;9.190;2024-03-02T08:47:42;16.60;99.90
13174;DHT22;6652;48.802;9.190;2024-03-02T08:50:12;17.70;99.90
13174;DHT22;6652;48.802;9.190;2024-03-02T08:52:39;18.50;99.90
13174;DHT22;6652;48.802;9.190;2024-03-02T08:55:07;19.10;99.90
13174;DHT22;6652;48.802;9.190;2024-03-02T08:57:36;19.30;99.90
13174;DHT22;6652;48.802;9.190;2024-03-02T09:00:05;20.00;99.90
13174;DHT22;6652;48.802;9.190;2024-03-02T09:02:33;20.40;98.80
13174;DHT22;6652;48.802;9.190;2024-03-02T09:05:01;20.70;97.10
13174;DHT22;6652;48.802;9.190;2024-03-02T09:07:28;21.20;96.20
13174;DHT22;6652;48.802;9.190;2024-03-02T09:09:55;21.80;93.90
13174;DHT22;6652;48.802;9.190;2024-03-02T09:12:22;22.00;92.00
13174;DHT22;6652;48.802;9.190;2024-03-02T09:14:50;22.30;91.00
13174;DHT22;6652;48.802;9.190;2024-03-02T09:17:17;22.40;88.70
13174;DHT22;6652;48.802;9.190;2024-03-02T09:19:44;22.60;87.70
13174;DHT22;6652;48.802;9.190;2024-03-02T09:22:10;23.00;84.40
13174;DHT22;6652;48.802;9.190;2024-03-02T09:24:39;23.10;82.70
13174;DHT22;6652;48.802;9.190;2024-03-02T09:27:06;23.00;81.00
13174;DHT22;6652;48.802;9.190;2024-03-02T09:29:33;23.10;80.00
13174;DHT22;6652;48.802;9.190;2024-03-02T09:32:03;23.00;79.20
13174;DHT22;6652;48.802;9.190;2024-03-02T09:34:31;23.10;77.80
13174;DHT22;6652;48.802;9.190;2024-03-02T09:36:58;23.10;77.10
13174;DHT22;6652;48.802;9.190;2024-03-02T09:39:29;23.20;76.10
13174;DHT22;6652;48.802;9.190;2024-03-02T09:42:05;23.40;74.70
13174;DHT22;6652;48.802;9.190;2024-03-02T09:44:33;23.40;73.80
13174;DHT22;6652;48.802;9.190;2024-03-02T09:47:00;23.30;73.30
13174;DHT22;6652;48.802;9.190;2024-03-02T09:49:29;23.10;73.00
13174;DHT22;6652;48.802;9.190;2024-03-02T09:51:57;23.40;72.20
13174;DHT22;6652;48.802;9.190;2024-03-02T09:54:24;24.00;71.20
13174;DHT22;6652;48.802;9.190;2024-03-02T09:56:51;24.30;68.50
13174;DHT22;6652;48.802;9.190;2024-03-02T09:59:19;24.80;68.10
13174;DHT22;6652;48.802;9.190;2024-03-02T10:01:56;25.20;66.40
13174;DHT22;6652;48.802;9.190;2024-03-02T10:04:25;25.40;64.00
13174;DHT22;6652;48.802;9.190;2024-03-02T10:07:12;24.80;64.00
13174;DHT22;6652;48.802;9.190;2024-03-02T10:09:40;24.80;64.30
13174;DHT22;6652;48.802;9.190;2024-03-02T10:12:09;24.70;63.40
13174;DHT22;6652;48.802;9.190;2024-03-02T10:14:50;24.30;63.00
13174;DHT22;6652;48.802;9.190;2024-03-02T10:17:44;23.90;63.70
13174;DHT22;6652;48.802;9.190;2024-03-02T10:20:23;23.70;64.10
13174;DHT22;6652;48.802;9.190;2024-03-02T10:23:14;23.60;64.70
13174;DHT22;6652;48.802;9.190;2024-03-02T10:25:46;23.40;65.00
13174;DHT22;6652;48.802;9.190;2024-03-02T10:28:27;23.30;65.30
13174;DHT22;6652;48.802;9.190;2024-03-02T10:30:55;23.00;65.20
13174;DHT22;6652;48.802;9.190;2024-03-02T10:33:24;22.90;66.10
13174;DHT22;6652;48.802;9.190;2024-03-02T10:36:05;22.70;65.90
13174;DHT22;6652;48.802;9.190;2024-03-02T10:38:41;23.00;65.90
13174;DHT22;6652;48.802;9.190;2024-03-02T10:41:10;22.80;66.20
13174;DHT22;6652;48.802;9.190;2024-03-02T10:43:52;22.50;67.00
13174;DHT22;6652;48.802;9.190;2024-03-02T10:46:29;22.10;67.30
13174;DHT22;6652;48.802;9.190;2024-03-02T10:48:56;22.00;68.90
13174;DHT22;6652;48.802;9.190;2024-03-02T10:51:25;22.20;67.70
13174;DHT22;6652;48.802;9.190;2024-03-02T10:53:56;21.90;68.30
13174;DHT22;6652;48.802;9.190;2024-03-02T10:56:29;21.20;68.90
13174;DHT22;6652;48.802;9.190;2024-03-02T10:59:02;19.40;72.00
13174;DHT22;6652;48.802;9.190;2024-03-02T11:01:31;18.10;75.50
13174;DHT22;6652;48.802;9.190;2024-03-02T11:04:02;17.20;79.00
13174;DHT22;6652;48.802;9.190;2024-03-02T11:06:30;16.20;81.30
13174;DHT22;6652;48.802;9.190;2024-03-02T11:09:07;15.80;84.50
13174;DHT22;6652;48.802;9.190;2024-03-02T11:11:54;15.50;85.70
13174;DHT22;6652;48.802;9.190;2024-03-02T11:14:40;15.20;87.30
13174;DHT22;6652;48.802;9.190;2024-03-02T11:17:09;14.90;88.50
13174;DHT22;6652;48.802;9.190;2024-03-02T11:19:41;15.10;90.30
13174;DHT22;6652;48.802;9.190;2024-03-02T11:22:09;14.50;90.60
13174;DHT22;6652;48.802;9.190;2024-03-02T11:24:47;14.80;90.40
13174;DHT22;6652;48.802;9.190;2024-03-02T11:27:59;14.80;91.00
13174;DHT22;6652;48.802;9.190;2024-03-02T11:30:48;14.80;91.20
13174;DHT22;6652;48.802;9.190;2024-03-02T11:33:23;14.90;91.20
13174;DHT22;6652;48.802;9.190;2024-03-02T11:35:53;15.00;91.60
13174;DHT22;6652;48.802;9.190;2024-03-02T11:38:21;15.40;91.20
13174;DHT22;6652;48.802;9.190;2024-03-02T11:41:08;14.90;91.00
13174;DHT22;6652;48.802;9.190;2024-03-02T11:43:40;15.00;91.70
13174;DHT22;6652;48.802;9.190;2024-03-02T11:46:11;15.00;91.20
13174;DHT22;6652;48.802;9.190;2024-03-02T11:48:51;15.00;91.00
13174;DHT22;6652;48.802;9.190;2024-03-02T11:51:22;15.10;91.00
13174;DHT22;6652;48.802;9.190;2024-03-02T11:53:58;15.40;90.70
13174;DHT22;6652;48.802;9.190;2024-03-02T11:56:33;15.40;90.90
13174;DHT22;6652;48.802;9.190;2024-03-02T11:59:01;15.20;90.70
13174;DHT22;6652;48.802;9.190;2024-03-02T12:01:42;15.30;90.20
13174;DHT22;6652;48.802;9.190;2024-03-02T12:04:10;15.70;90.80
13174;DHT22;6652;48.802;9.190;2024-03-02T12:06:37;15.40;88.80
13174;DHT22;6652;48.802;9.190;2024-03-02T12:09:05;15.40;87.60
13174;DHT22;6652;48.802;9.190;2024-03-02T12:11:38;15.40;86.90
13174;DHT22;6652;48.802;9.190;2024-03-02T12:14:11;15.60;86.80
13174;DHT22;6652;48.802;9.190;2024-03-02T12:16:43;15.80;86.20
13174;DHT22;6652;48.802;9.190;2024-03-02T12:19:11;15.60;85.90
13174;DHT22;6652;48.802;9.190;2024-03-02T12:21:39;15.60;85.50
13174;DHT22;6652;48.802;9.190;2024-03-02T12:24:07;15.80;86.40
13174;DHT22;6652;48.802;9.190;2024-03-02T12:26:34;16.00;85.10
13174;DHT22;6652;48.802;9.190;2024-03-02T12:29:25;16.00;84.20
13174;DHT22;6652;48.802;9.190;2024-03-02T12:32:01;16.10;84.10
13174;DHT22;6652;48.802;9.190;2024-03-02T12:34:29;16.00;83.20
13174;DHT22;6652;48.802;9.190;2024-03-02T12:37:00;16.00;82.50
13174;DHT22;6652;48.802;9.190;2024-03-02T12:39:44;16.00;83.40
13174;DHT22;6652;48.802;9.190;2024-03-02T12:42:12;16.10;83.50
13174;DHT22;6652;48.802;9.190;2024-03-02T12:44:41;16.10;82.80
13174;DHT22;6652;48.802;9.190;2024-03-02T12:47:10;16.10;82.50
13174;DHT22;6652;48.802;9.190;2024-03-02T12:49:39;16.10;83.30
13174;DHT22;6652;48.802;9.190;2024-03-02T12:52:06;16.20;83.60
13174;DHT22;6652;48.802;9.190;2024-03-02T12:54:34;16.30;83.50
13174;DHT22;6652;48.802;9.190;2024-03-02T12:57:02;16.30;83.10
13174;DHT22;6652;48.802;9.190;2024-03-02T12:59:31;16.40;83.40
13174;DHT22;6652;48.802;9.190;2024-03-02T13:02:07;16.50;83.00
13174;DHT22;6652;48.802;9.190;2024-03-02T13:04:36;16.50;81.60
13174;DHT22;6652;48.802;9.190;2024-03-02T13:07:03;16.50;81.20
13174;DHT22;6652;48.802;9.190;2024-03-02T13:09:30;16.40;80.90
13174;DHT22;6652;48.802;9.190;2024-03-02T13:11:59;16.30;80.60
13174;DHT22;6652;48.802;9.190;2024-03-02T13:14:26;16.40;81.00
13174;DHT22;6652;48.802;9.190;2024-03-02T13:16:53;16.40;80.40
13174;DHT22;6652;48.802;9.190;2024-03-02T13:19:31;16.60;81.20
13174;DHT22;6652;48.802;9.190;2024-03-02T13:22:01;16.50;81.10
13174;DHT22;6652;48.802;9.190;2024-03-02T13:24:31;16.50;81.10
13174;DHT22;6652;48.802;9.190;2024-03-02T13:27:00;16.50;79.60
13174;DHT22;6652;48.802;9.190;2024-03-02T13:29:30;16.80;80.20
13174;DHT22;6652;48.802;9.190;2024-03-02T13:32:01;16.60;80.10
13174;DHT22;6652;48.802;9.190;2024-03-02T13:34:32;16.70;79.80
13174;DHT22;6652;48.802;9.190;2024-03-02T13:37:00;16.80;80.50
13174;DHT22;6652;48.802;9.190;2024-03-02T13:39:27;16.80;80.10
13174;DHT22;6652;48.802;9.190;2024-03-02T13:41:58;17.20;78.50
13174;DHT22;6652;48.802;9.190;2024-03-02T13:44:43;16.70;77.80
13174;DHT22;6652;48.802;9.190;2024-03-02T13:47:21;16.60;78.40
13174;DHT22;6652;48.802;9.190;2024-03-02T13:50:10;16.60;78.30
13174;DHT22;6652;48.802;9.190;2024-03-02T13:52:48;16.50;78.90
13174;DHT22;6652;48.802;9.190;2024-03-02T13:55:15;16.70;79.60
13174;DHT22;6652;48.802;9.190;2024-03-02T13:57:43;16.50;79.60
13174;DHT22;6652;48.802;9.190;2024-03-02T14:00:12;16.90;79.50
13174;DHT22;6652;48.802;9.190;2024-03-02T14:02:40;16.50;78.90
13174;DHT22;6652;48.802;9.190;2024-03-02T14:05:35;16.40;78.50
13174;DHT22;6652;48.802;9.190;2024-03-02T14:08:23;16.50;78.70
13174;DHT22;6652;48.802;9.190;2024-03-02T14:11:20;16.40;79.10
13174;DHT22;6652;48.802;9.190;2024-03-02T14:14:22;16.10;78.40
13174;DHT22;6652;48.802;9.190;2024-03-02T14:17:13;16.40;79.20
13174;DHT22;6652;48.802;9.190;2024-03-02T14:20:06;16.40;78.90
13174;DHT22;6652;48.802;9.190;2024-03-02T14:23:16;16.40;79.00
13174;DHT22;6652;48.802;9.190;2024-03-02T14:26:00;16.30;78.70
13174;DHT22;6652;48.802;9.190;2024-03-02T14:28:39;16.20;77.60
13174;DHT22;6652;48.802;9.190;2024-03-02T14:31:10;16.30;78.10
13174;DHT22;6652;48.802;9.190;2024-03-02T14:33:51;16.20;77.90
13174;DHT22;6652;48.802;9.190;2024-03-02T14:36:32;16.20;77.60
13174;DHT22;6652;48.802;9.190;2024-03-02T14:39:29;16.00;76.90
13174;DHT22;6652;48.802;9.190;2024-03-02T14:42:00;16.30;76.50
13174;DHT22;6652;48.802;9.190;2024-03-02T14:44:41;16.20;76.70
13174;DHT22;6652;48.802;9.190;2024-03-02T14:47:28;16.50;77.30
13174;DHT22;6652;48.802;9.190;2024-03-02T14:53:16;16.20;77.50
13174;DHT22;6652;48.802;9.190;2024-03-02T14:56:06;16.20;77.00
13174;DHT22;6652;48.802;9.190;2024-03-02T14:58:33;16.20;77.80
13174;DHT22;6652;48.802;9.190;2024-03-02T15:01:01;16.20;78.20
13174;DHT22;6652;48.802;9.190;2024-03-02T15:03:28;16.20;77.00
13174;DHT22;6652;48.802;9.190;2024-03-02T15:05:56;16.20;75.30
13174;DHT22;6652;48.802;9.190;2024-03-02T15:08:23;16.10;74.30
13174;DHT22;6652;48.802;9.190;2024-03-02T15:10:50;16.10;74.00
13174;DHT22;6652;48.802;9.190;2024-03-02T15:13:19;16.00;74.40
13174;DHT22;6652;48.802;9.190;2024-03-02T15:15:46;16.00;73.90
13174;DHT22;6652;48.802;9.190;2024-03-02T15:18:13;15.90;73.20
13174;DHT22;6652;48.802;9.190;2024-03-02T15:20:40;15.90;73.10
13174;DHT22;6652;48.802;9.190;2024-03-02T15:23:07;15.80;73.70
13174;DHT22;6652;48.802;9.190;2024-03-02T15:25:34;15.80;73.10
13174;DHT22;6652;48.802;9.190;2024-03-02T15:28:01;15.70;72.60
13174;DHT22;6652;48.802;9.190;2024-03-02T15:30:32;15.60;73.30
13174;DHT22;6652;48.802;9.190;2024-03-02T15:33:00;15.50;74.00
13174;DHT22;6652;48.802;9.190;2024-03-02T15:35:27;15.80;74.90
13174;DHT22;6652;48.802;9.190;2024-03-02T15:38:08;15.50;75.00
13174;DHT22;6652;48.802;9.190;2024-03-02T15:40:40;15.20;75.70
13174;DHT22;6652;48.802;9.190;2024-03-02T15:43:07;15.00;75.10
13174;DHT22;6652;48.802;9.190;2024-03-02T15:45:36;15.00;74.80
13174;DHT22;6652;48.802;9.190;2024-03-02T15:48:03;14.90;74.80
13174;DHT22;6652;48.802;9.190;2024-03-02T15:50:30;14.90;74.80
13174;DHT22;6652;48.802;9.190;2024-03-02T15:52:58;14.80;75.50
13174;DHT22;6652;48.802;9.190;2024-03-02T15:55:29;14.70;76.10
13174;DHT22;6652;48.802;9.190;2024-03-02T15:57:57;14.60;77.00
13174;DHT22;6652;48.802;9.190;2024-03-02T16:00:24;14.60;77.70
13174;DHT22;6652;48.802;9.190;2024-03-02T16:02:56;14.50;78.20
13174;DHT22;6652;48.802;9.190;2024-03-02T16:05:23;14.50;79.10
13174;DHT22;6652;48.802;9.190;2024-03-02T16:07:50;14.40;80.20
13174;DHT22;6652;48.802;9.190;2024-03-02T16:10:17;14.50;81.70
13174;DHT22;6652;48.802;9.190;2024-03-02T16:12:44;14.30;82.60
13174;DHT22;6652;48.802;9.190;2024-03-02T16:15:12;14.20;83.70
13174;DHT22;6652;48.802;9.190;2024-03-02T16:17:39;14.20;84.30